createdAt,value
2023-05-09T00:01:15.361Z,101302.34
2023-05-09T00:03:42.217Z,101308.91
2023-05-09T00:06:09.874Z,101300.91
2023-05-09T00:08:36.790Z,101300.63
2023-05-09T00:11:03.757Z,101298.63
2023-05-09T00:13:30.339Z,101301.94
2023-05-09T00:15:56.997Z,101292.25
2023-05-09T00:18:27.130Z,101275.03
2023-05-09T00:20:54.038Z,101289.19
2023-05-09T00:23:20.826Z,101286.19
2023-05-09T00:25:47.624Z,101282.22
2023-05-09T00:28:14.345Z,101285.59
2023-05-09T00:30:41.001Z,101273.84
2023-05-09T00:33:07.708Z,101274.88
2023-05-09T00:35:38.469Z,101280.41
2023-05-09T00:38:08.193Z,101267.66
2023-05-09T00:40:34.962Z,101271.53
2023-05-09T00:43:01.613Z,101280.59
2023-05-09T00:45:28.280Z,101286.06
2023-05-09T00:47:55.885Z,101281.44
2023-05-09T00:50:22.744Z,101289.44
2023-05-09T00:52:50.433Z,101276.22
2023-05-09T00:55:18.574Z,101279.75
2023-05-09T00:57:48.330Z,101275.28
2023-05-09T01:00:16.439Z,101279.47
2023-05-09T01:02:53.254Z,101288.44
2023-05-09T01:05:20.858Z,101271.84
2023-05-09T01:08:03.284Z,101285.03
2023-05-09T01:10:57.113Z,101289.41
2023-05-09T01:13:44.594Z,101289.72
2023-05-09T01:16:26.472Z,101277.34
2023-05-09T01:19:08.063Z,101273.50
2023-05-09T01:21:38.139Z,101277.88
2023-05-09T01:24:19.905Z,101280.78
2023-05-09T01:27:20.223Z,101282.59
2023-05-09T01:30:00.115Z,101279.00
2023-05-09T01:32:29.041Z,101287.03
2023-05-09T01:35:02.157Z,101285.25
2023-05-09T01:37:34.418Z,101280.78
2023-05-09T01:40:06.889Z,101278.56
2023-05-09T01:43:08.890Z,101276.53
2023-05-09T01:45:37.467Z,101283.47
2023-05-09T01:48:05.517Z,101273.97
2023-05-09T01:50:36.038Z,101278.69
2023-05-09T01:53:05.939Z,101275.44
2023-05-09T01:55:35.613Z,101277.94
2023-05-09T01:58:04.447Z,101270.75
2023-05-09T02:00:34.712Z,101274.91
2023-05-09T02:03:03.931Z,101279.81
2023-05-09T02:05:32.579Z,101272.44
2023-05-09T02:08:00.253Z,101270.44
2023-05-09T02:10:31.203Z,101280.63
2023-05-09T02:12:57.938Z,101275.94
2023-05-09T02:15:30.248Z,101278.84
2023-05-09T02:17:56.997Z,101264.53
2023-05-09T02:20:26.685Z,101271.59
2023-05-09T02:22:53.419Z,101275.25
2023-05-09T02:25:20.332Z,101269.22
2023-05-09T02:27:51.446Z,101265.06
2023-05-09T02:30:21.685Z,101267.88
2023-05-09T02:32:50.574Z,101273.34
2023-05-09T02:35:18.424Z,101277.66
2023-05-09T02:37:45.783Z,101273.88
2023-05-09T02:40:14.747Z,101260.38
2023-05-09T02:42:41.641Z,101261.72
2023-05-09T02:45:08.812Z,101272.22
2023-05-09T02:47:35.507Z,101272.22
2023-05-09T02:50:02.445Z,101262.84
2023-05-09T02:52:29.122Z,101259.16
2023-05-09T02:54:55.822Z,101258.72
2023-05-09T02:57:22.692Z,101274.38
2023-05-09T02:59:50.546Z,101273.19
2023-05-09T03:02:17.313Z,101262.69
2023-05-09T03:04:44.126Z,101269.28
2023-05-09T03:07:10.955Z,101266.84
2023-05-09T03:09:39.285Z,101261.53
2023-05-09T03:12:08.187Z,101259.63
2023-05-09T03:14:34.864Z,101265.19
2023-05-09T03:17:01.426Z,101275.72
2023-05-09T03:19:28.122Z,101279.53
2023-05-09T03:21:54.800Z,101282.03
2023-05-09T03:24:22.014Z,101285.63
2023-05-09T03:26:48.710Z,101290.41
2023-05-09T03:29:18.031Z,101290.09
2023-05-09T03:31:44.795Z,101294.56
2023-05-09T03:34:12.030Z,101278.41
2023-05-09T03:36:38.742Z,101288.00
2023-05-09T03:39:05.410Z,101294.41
2023-05-09T03:41:32.271Z,101281.78
2023-05-09T03:43:59.011Z,101286.00
2023-05-09T03:46:26.002Z,101293.38
2023-05-09T03:48:52.846Z,101292.66
2023-05-09T03:51:19.902Z,101294.59
2023-05-09T03:53:53.598Z,101298.59
2023-05-09T03:56:22.628Z,101292.56
2023-05-09T03:58:49.597Z,101287.75
2023-05-09T04:01:16.291Z,101296.03
2023-05-09T04:03:43.203Z,101296.94
2023-05-09T04:06:10.457Z,101301.97
2023-05-09T04:08:37.225Z,101304.75
2023-05-09T04:11:03.880Z,101298.16
2023-05-09T04:13:30.652Z,101293.28
2023-05-09T04:15:57.369Z,101293.88
2023-05-09T04:18:24.157Z,101288.19
2023-05-09T04:20:50.932Z,101290.53
2023-05-09T04:23:17.704Z,101293.28
2023-05-09T04:25:44.356Z,101286.38
2023-05-09T04:28:11.144Z,101291.75
2023-05-09T04:30:37.982Z,101291.16
2023-05-09T04:33:07.345Z,101292.72
2023-05-09T04:35:34.136Z,101291.31
2023-05-09T04:38:00.889Z,101289.25
2023-05-09T04:40:27.634Z,101294.78
2023-05-09T04:42:54.724Z,101289.56
2023-05-09T04:45:21.528Z,101297.69
2023-05-09T04:47:48.140Z,101295.50
2023-05-09T04:50:14.821Z,101306.03
2023-05-09T04:52:41.650Z,101300.00
2023-05-09T04:55:08.607Z,101303.63
2023-05-09T04:57:35.316Z,101297.25
2023-05-09T05:00:02.008Z,101299.25
2023-05-09T05:02:28.697Z,101303.38
2023-05-09T05:05:06.222Z,101300.09
2023-05-09T05:07:37.987Z,101301.78
2023-05-09T05:10:05.038Z,101295.94
2023-05-09T05:12:31.829Z,101292.63
2023-05-09T05:14:58.541Z,101297.84
2023-05-09T05:17:25.583Z,101305.81
2023-05-09T05:19:52.181Z,101298.88
2023-05-09T05:22:18.802Z,101301.44
2023-05-09T05:24:45.415Z,101308.72
2023-05-09T05:27:14.464Z,101306.97
2023-05-09T05:29:41.141Z,101311.59
2023-05-09T05:32:07.761Z,101304.44
2023-05-09T05:34:34.422Z,101312.47
2023-05-09T05:37:01.059Z,101308.41
2023-05-09T05:39:27.894Z,101313.84
2023-05-09T05:41:54.574Z,101311.94
2023-05-09T05:44:21.230Z,101304.56
2023-05-09T05:46:48.105Z,101310.13
2023-05-09T05:49:21.901Z,101299.75
2023-05-09T05:51:48.668Z,101295.28
2023-05-09T05:54:22.584Z,101300.31
2023-05-09T05:56:49.239Z,101300.06
2023-05-09T05:59:15.875Z,101306.19
2023-05-09T06:01:42.513Z,101306.59
2023-05-09T06:04:09.417Z,101311.84
2023-05-09T06:06:36.327Z,101318.16
2023-05-09T06:09:03.025Z,101317.88
2023-05-09T06:11:29.823Z,101309.09
2023-05-09T06:13:56.495Z,101305.53
2023-05-09T06:16:23.264Z,101308.03
2023-05-09T06:18:50.658Z,101314.19
2023-05-09T06:21:17.819Z,101311.13
2023-05-09T06:24:01.536Z,101310.72
2023-05-09T06:26:31.298Z,101308.50
2023-05-09T06:28:58.319Z,101317.41
2023-05-09T06:31:25.915Z,101315.78
2023-05-09T06:33:52.899Z,101310.13
2023-05-09T06:36:19.898Z,101312.22
2023-05-09T06:38:46.730Z,101310.03
2023-05-09T06:41:13.443Z,101304.00
2023-05-09T06:43:40.170Z,101309.53
2023-05-09T06:46:07.238Z,101316.56
2023-05-09T06:48:33.979Z,101310.88
2023-05-09T06:51:00.734Z,101313.03
2023-05-09T06:53:27.388Z,101314.38
2023-05-09T06:55:54.031Z,101310.56
2023-05-09T06:58:24.010Z,101318.09
2023-05-09T07:00:50.748Z,101320.56
2023-05-09T07:03:17.425Z,101319.53
2023-05-09T07:05:44.220Z,101312.84
2023-05-09T07:08:10.992Z,101314.91
2023-05-09T07:10:38.990Z,101304.13
2023-05-09T07:13:06.162Z,101307.44
2023-05-09T07:15:41.525Z,101305.78
2023-05-09T07:18:09.571Z,101306.09
2023-05-09T07:20:36.546Z,101303.72
2023-05-09T07:23:06.334Z,101301.03
2023-05-09T07:25:34.082Z,101307.53
2023-05-09T07:28:00.703Z,101300.41
2023-05-09T07:30:27.380Z,101300.22
2023-05-09T07:32:54.139Z,101299.16
2023-05-09T07:35:20.921Z,101294.84
2023-05-09T07:37:47.583Z,101292.88
2023-05-09T07:40:14.815Z,101303.50
2023-05-09T07:42:41.808Z,101312.69
2023-05-09T07:45:08.874Z,101297.13
2023-05-09T07:47:35.624Z,101297.72
2023-05-09T07:50:02.443Z,101297.66
2023-05-09T07:52:29.051Z,101301.34
2023-05-09T07:54:55.703Z,101296.44
2023-05-09T07:57:22.342Z,101291.72
2023-05-09T07:59:49.003Z,101296.50
2023-05-09T08:02:15.679Z,101296.63
2023-05-09T08:04:42.425Z,101298.84
2023-05-09T08:07:09.225Z,101285.94
2023-05-09T08:09:35.966Z,101289.63
2023-05-09T08:12:02.644Z,101284.34
2023-05-09T08:14:29.639Z,101282.13
2023-05-09T08:16:56.275Z,101285.44
2023-05-09T08:19:23.069Z,101279.00
2023-05-09T08:21:49.731Z,101278.03
2023-05-09T08:24:16.360Z,101277.78
2023-05-09T08:26:43.099Z,101278.03
2023-05-09T08:29:09.812Z,101286.53
2023-05-09T08:31:39.397Z,101275.72
2023-05-09T08:34:06.081Z,101277.59
2023-05-09T08:36:32.765Z,101282.03
2023-05-09T08:38:59.445Z,101279.34
2023-05-09T08:41:26.920Z,101265.31
2023-05-09T08:43:54.616Z,101273.44
2023-05-09T08:46:36.807Z,101272.97
2023-05-09T08:49:05.927Z,101268.94
2023-05-09T08:51:33.157Z,101266.41
2023-05-09T08:54:00.372Z,101268.97
2023-05-09T08:56:27.297Z,101261.78
2023-05-09T08:58:57.085Z,101262.50
2023-05-09T09:01:24.859Z,101262.75
2023-05-09T09:03:52.061Z,101266.13
2023-05-09T09:06:20.683Z,101255.34
2023-05-09T09:08:49.192Z,101253.41
2023-05-09T09:11:17.463Z,101255.44
2023-05-09T09:13:48.464Z,101252.78
2023-05-09T09:16:20.352Z,101249.78
2023-05-09T09:18:47.224Z,101252.50
2023-05-09T09:21:16.409Z,101250.22
2023-05-09T09:23:44.564Z,101245.75
2023-05-09T09:26:11.271Z,101260.28
2023-05-09T09:28:37.901Z,101255.31
2023-05-09T09:31:23.153Z,101257.63
2023-05-09T09:33:50.126Z,101259.63
2023-05-09T09:36:20.028Z,101260.78
2023-05-09T09:38:46.834Z,101257.47
2023-05-09T09:41:13.468Z,101257.94
2023-05-09T09:43:45.657Z,101258.94
2023-05-09T09:46:14.447Z,101264.69
2023-05-09T09:48:46.493Z,101251.53
2023-05-09T09:51:13.157Z,101254.00
2023-05-09T09:53:46.604Z,101253.97
2023-05-09T09:56:14.122Z,101245.88
2023-05-09T09:58:40.972Z,101246.50
2023-05-09T10:01:12.670Z,101252.38
2023-05-09T10:03:44.583Z,101246.88
2023-05-09T10:06:15.751Z,101248.06
2023-05-09T10:08:45.333Z,101231.88
2023-05-09T10:11:12.523Z,101235.53
2023-05-09T10:13:39.150Z,101235.38
2023-05-09T10:16:08.827Z,101235.66
2023-05-09T10:18:36.290Z,101227.09
2023-05-09T10:21:10.187Z,101225.56
2023-05-09T10:23:38.503Z,101220.53
2023-05-09T10:26:26.251Z,101218.53
2023-05-09T10:28:55.924Z,101212.28
2023-05-09T10:31:27.051Z,101209.34
2023-05-09T10:33:58.080Z,101214.06
2023-05-09T10:36:25.049Z,101214.84
2023-05-09T10:38:54.394Z,101208.19
2023-05-09T10:41:22.210Z,101206.66
2023-05-09T10:43:49.428Z,101204.66
2023-05-09T10:46:16.611Z,101217.88
2023-05-09T10:48:47.759Z,101215.78
2023-05-09T10:51:14.414Z,101208.38
2023-05-09T10:53:41.906Z,101214.31
2023-05-09T10:56:08.541Z,101213.34
2023-05-09T10:58:35.830Z,101210.66
2023-05-09T11:01:04.722Z,101211.97
2023-05-09T11:03:54.287Z,101204.81
2023-05-09T11:06:41.336Z,101203.69
2023-05-09T11:09:37.578Z,101191.91
2023-05-09T11:12:07.523Z,101191.28
2023-05-09T11:14:50.475Z,101186.84
2023-05-09T11:17:23.442Z,101180.72
2023-05-09T11:19:50.180Z,101183.19
2023-05-09T11:22:21.583Z,101181.72
2023-05-09T11:24:53.234Z,101187.63
2023-05-09T11:27:26.540Z,101180.25
2023-05-09T11:29:58.600Z,101180.25
2023-05-09T11:32:31.934Z,101179.41
2023-05-09T11:35:09.392Z,101177.41
2023-05-09T11:37:59.100Z,101175.16
2023-05-09T11:40:27.262Z,101172.00
2023-05-09T11:42:59.032Z,101171.50
2023-05-09T11:45:29.223Z,101166.66
2023-05-09T11:47:56.462Z,101172.25
2023-05-09T11:50:23.774Z,101168.31
2023-05-09T11:52:51.242Z,101170.63
2023-05-09T11:55:19.963Z,101165.84
2023-05-09T11:57:48.768Z,101163.84
2023-05-09T12:00:19.749Z,101158.44
2023-05-09T12:02:46.858Z,101159.75
2023-05-09T12:05:15.746Z,101159.13
2023-05-09T12:07:42.964Z,101154.00
2023-05-09T12:10:11.267Z,101160.59
2023-05-09T12:12:43.819Z,101149.53
2023-05-09T12:15:11.412Z,101149.53
2023-05-09T12:17:38.388Z,101148.53
2023-05-09T12:20:05.700Z,101149.31
2023-05-09T12:22:36.386Z,101148.19
2023-05-09T12:25:13.152Z,101147.03
2023-05-09T12:27:43.839Z,101150.59
2023-05-09T12:30:12.092Z,101140.41
2023-05-09T12:32:39.484Z,101135.44
2023-05-09T12:35:10.787Z,101137.22
2023-05-09T12:37:37.857Z,101135.25
2023-05-09T12:40:11.571Z,101140.38
2023-05-09T12:42:38.921Z,101142.00
2023-05-09T12:45:08.688Z,101139.38
2023-05-09T12:47:35.590Z,101128.47
2023-05-09T12:50:03.877Z,101134.91
2023-05-09T12:52:54.495Z,101129.81
2023-05-09T12:55:31.874Z,101126.81
2023-05-09T12:58:03.036Z,101128.63
2023-05-09T13:00:42.053Z,101123.81
2023-05-09T13:03:23.834Z,101116.44
2023-05-09T13:06:01.139Z,101120.41
2023-05-09T13:08:28.862Z,101116.47
2023-05-09T13:11:08.023Z,101102.63
2023-05-09T13:13:42.214Z,101113.50
2023-05-09T13:19:02.270Z,101092.91
2023-05-09T13:21:34.603Z,101090.31
2023-05-09T13:24:01.638Z,101086.03
2023-05-09T13:26:29.287Z,101093.78
2023-05-09T13:28:57.350Z,101087.38
2023-05-09T13:31:24.572Z,101087.28
2023-05-09T13:33:52.786Z,101080.00
2023-05-09T13:36:19.505Z,101080.38
2023-05-09T13:38:46.123Z,101086.63
2023-05-09T13:41:13.888Z,101084.31
2023-05-09T13:43:40.561Z,101078.38
2023-05-09T13:46:07.224Z,101081.53
2023-05-09T13:48:36.940Z,101080.38
2023-05-09T13:51:03.889Z,101076.25
2023-05-09T13:53:30.621Z,101069.16
2023-05-09T13:55:57.317Z,101081.34
2023-05-09T13:58:24.206Z,101073.59
2023-05-09T14:00:50.838Z,101071.16
2023-05-09T14:03:17.556Z,101068.50
2023-05-09T14:05:44.444Z,101061.09
2023-05-09T14:08:11.133Z,101062.75
2023-05-09T14:10:37.834Z,101062.59
2023-05-09T14:13:04.495Z,101060.28
2023-05-09T14:15:31.470Z,101059.16
2023-05-09T14:17:58.237Z,101066.72
2023-05-09T14:20:25.496Z,101067.56
2023-05-09T14:22:52.202Z,101054.88
2023-05-09T14:25:19.062Z,101057.16
2023-05-09T14:27:45.743Z,101069.53
2023-05-09T14:30:13.084Z,101046.63
2023-05-09T14:32:40.015Z,101043.97
2023-05-09T14:35:07.038Z,101046.13
2023-05-09T14:37:33.761Z,101046.47
2023-05-09T14:40:00.547Z,101042.66
2023-05-09T14:42:27.372Z,101046.13
2023-05-09T14:44:54.210Z,101047.44
2023-05-09T14:47:21.111Z,101049.59
2023-05-09T14:49:47.736Z,101032.44
2023-05-09T14:52:16.924Z,101037.88
2023-05-09T14:54:43.617Z,101042.34
2023-05-09T14:57:10.415Z,101035.06
2023-05-09T14:59:37.389Z,101029.78
2023-05-09T15:02:04.091Z,101039.81
2023-05-09T15:04:31.094Z,101035.84
2023-05-09T15:06:58.010Z,101036.72
2023-05-09T15:09:24.702Z,101024.66
2023-05-09T15:11:51.495Z,101027.19
2023-05-09T15:14:18.104Z,101024.66
2023-05-09T15:16:44.908Z,101023.38
2023-05-09T15:19:11.729Z,101024.22
2023-05-09T15:21:40.175Z,101020.09
2023-05-09T15:24:07.261Z,101016.97
2023-05-09T15:26:34.089Z,101016.97
2023-05-09T15:29:00.836Z,101010.84
2023-05-09T15:31:32.202Z,101023.50
2023-05-09T15:33:59.887Z,101016.72
2023-05-09T15:36:28.776Z,101021.81
2023-05-09T15:38:55.579Z,101013.41
2023-05-09T15:41:25.371Z,101024.09
2023-05-09T15:43:52.339Z,101020.63
2023-05-09T15:46:19.258Z,101013.75
2023-05-09T15:48:46.084Z,101011.25
2023-05-09T15:51:12.832Z,101002.88
2023-05-09T15:53:39.697Z,100995.28
2023-05-09T15:56:07.701Z,101006.00
2023-05-09T15:58:34.614Z,101014.41
2023-05-09T16:01:04.430Z,101003.38
2023-05-09T16:03:31.293Z,101000.38
2023-05-09T16:05:58.742Z,101011.06
2023-05-09T16:08:25.617Z,101005.59
2023-05-09T16:10:52.347Z,101000.50
2023-05-09T16:13:19.126Z,100990.22
2023-05-09T16:15:46.084Z,100991.38
2023-05-09T16:18:15.434Z,100996.53
2023-05-09T16:20:42.142Z,100999.34
2023-05-09T16:23:10.164Z,100996.59
2023-05-09T16:25:36.898Z,100991.78
2023-05-09T16:28:03.780Z,100997.88
2023-05-09T16:30:30.491Z,100997.75
2023-05-09T16:32:57.150Z,100994.28
2023-05-09T16:35:23.843Z,100990.34
2023-05-09T16:37:50.863Z,100996.94
2023-05-09T16:40:18.793Z,100991.00
2023-05-09T16:42:45.617Z,100981.91
2023-05-09T16:45:12.323Z,100984.69
2023-05-09T16:47:39.046Z,100984.97
2023-05-09T16:50:09.390Z,100980.22
2023-05-09T16:52:36.071Z,100979.06
2023-05-09T16:55:02.825Z,100975.41
2023-05-09T16:57:29.637Z,100970.94
2023-05-09T16:59:56.511Z,100963.84
2023-05-09T17:02:23.335Z,100971.06
2023-05-09T17:04:50.305Z,100980.63
2023-05-09T17:07:17.086Z,100976.66
2023-05-09T17:09:43.775Z,100972.56
2023-05-09T17:12:10.608Z,100972.09
2023-05-09T17:14:37.364Z,100961.19
2023-05-09T17:17:03.996Z,100969.78
2023-05-09T17:19:30.724Z,100964.31
2023-05-09T17:21:57.338Z,100965.06
2023-05-09T17:24:24.349Z,100960.44
2023-05-09T17:26:51.155Z,100959.28
2023-05-09T17:29:17.833Z,100967.78
2023-05-09T17:31:44.529Z,100973.03
2023-05-09T17:34:11.432Z,100972.84
2023-05-09T17:36:38.064Z,100973.94
2023-05-09T17:39:04.959Z,100968.09
2023-05-09T17:41:31.627Z,100980.88
2023-05-09T17:43:58.298Z,100973.56
2023-05-09T17:46:25.032Z,100976.06
2023-05-09T17:48:51.934Z,100981.56
2023-05-09T17:51:18.661Z,100981.34
2023-05-09T17:53:45.315Z,100983.97
2023-05-09T17:56:12.030Z,100987.50
2023-05-09T17:58:38.836Z,100984.97
2023-05-09T18:01:06.223Z,100983.75
2023-05-09T18:03:33.093Z,100976.00
2023-05-09T18:05:59.936Z,100980.44
2023-05-09T18:08:26.600Z,100982.53
2023-05-09T18:10:53.864Z,100971.88
2023-05-09T18:13:21.267Z,100981.81
2023-05-09T18:15:48.588Z,100981.59
2023-05-09T18:18:15.247Z,100986.16
2023-05-09T18:20:42.263Z,100984.53
2023-05-09T18:23:09.204Z,100989.28
2023-05-09T18:25:35.868Z,100993.06
2023-05-09T18:28:16.791Z,100999.19
2023-05-09T18:30:48.633Z,100989.38
2023-05-09T18:33:15.562Z,100984.41
2023-05-09T18:35:42.450Z,100997.19
2023-05-09T18:38:09.226Z,101006.38
2023-05-09T18:40:35.880Z,100995.22
2023-05-09T18:43:05.421Z,100999.97
2023-05-09T18:45:32.369Z,101006.59
2023-05-09T18:47:59.455Z,101002.88
2023-05-09T18:50:26.273Z,101006.78
2023-05-09T18:52:53.018Z,101006.19
2023-05-09T18:55:19.889Z,100998.31
2023-05-09T18:57:46.613Z,100997.59
2023-05-09T19:00:15.772Z,101003.69
2023-05-09T19:02:42.863Z,100992.66
2023-05-09T19:05:09.640Z,100998.31
2023-05-09T19:07:36.874Z,101004.16
2023-05-09T19:10:04.207Z,100995.28
2023-05-09T19:12:31.827Z,101005.75
2023-05-09T19:14:58.589Z,100993.88
2023-05-09T19:17:25.432Z,100998.22
2023-05-09T19:19:52.306Z,100992.81
2023-05-09T19:22:19.203Z,100997.31
2023-05-09T19:24:45.902Z,100993.31
2023-05-09T19:27:12.558Z,100991.94
2023-05-09T19:29:39.249Z,100992.09
2023-05-09T19:32:06.014Z,100988.78
2023-05-09T19:34:32.614Z,100989.63
2023-05-09T19:36:59.286Z,100993.00
2023-05-09T19:39:26.021Z,100996.63
2023-05-09T19:41:56.163Z,100993.31
2023-05-09T19:44:26.292Z,100992.34
2023-05-09T19:46:53.134Z,100994.53
2023-05-09T19:49:19.799Z,100997.81
2023-05-09T19:51:46.597Z,100998.88
2023-05-09T19:54:13.515Z,100990.63
2023-05-09T19:56:42.819Z,100984.91
2023-05-09T19:59:09.510Z,100982.66
2023-05-09T20:01:36.242Z,100984.00
2023-05-09T20:04:02.968Z,100988.56
2023-05-09T20:06:29.830Z,100983.25
2023-05-09T20:08:56.427Z,100985.03
2023-05-09T20:11:23.414Z,100987.00
2023-05-09T20:13:50.210Z,100986.03
2023-05-09T20:16:16.897Z,100980.09
2023-05-09T20:18:43.831Z,100988.38
2023-05-09T20:21:10.826Z,100978.69
2023-05-09T20:23:37.599Z,100978.09
2023-05-09T20:26:04.232Z,100972.28
2023-05-09T20:28:30.974Z,100971.22
2023-05-09T20:30:58.120Z,100978.22
2023-05-09T20:33:24.930Z,100985.19
2023-05-09T20:35:51.527Z,100977.13
2023-05-09T20:38:18.182Z,100970.38
2023-05-09T20:40:45.124Z,100977.56
2023-05-09T20:43:11.835Z,100976.47
2023-05-09T20:45:38.714Z,100970.66
2023-05-09T20:48:06.252Z,100970.88
2023-05-09T20:50:33.051Z,100972.38
2023-05-09T20:52:59.855Z,100975.66
2023-05-09T20:55:29.441Z,100975.16
2023-05-09T20:57:56.132Z,100975.66
2023-05-09T21:00:22.927Z,100966.41
2023-05-09T21:02:52.654Z,100968.16
2023-05-09T21:05:19.879Z,100971.50
2023-05-09T21:07:46.515Z,100966.16
2023-05-09T21:10:13.701Z,100975.88
2023-05-09T21:12:40.543Z,100971.16
2023-05-09T21:15:08.159Z,100962.63
2023-05-09T21:17:34.911Z,100959.91
2023-05-09T21:20:01.711Z,100959.91
2023-05-09T21:22:31.571Z,100954.72
2023-05-09T21:24:58.261Z,100971.16
2023-05-09T21:27:25.211Z,100960.50
2023-05-09T21:29:55.884Z,100963.38
2023-05-09T21:32:22.637Z,100961.91
2023-05-09T21:34:49.315Z,100955.69
2023-05-09T21:37:16.271Z,100953.66
2023-05-09T21:39:42.952Z,100957.56
2023-05-09T21:42:09.973Z,100952.28
2023-05-09T21:44:39.451Z,100965.81
2023-05-09T21:47:06.223Z,100954.41
2023-05-09T21:49:33.021Z,100954.63
2023-05-09T21:51:59.937Z,100954.03
2023-05-09T21:54:26.666Z,100948.53
2023-05-09T21:56:53.423Z,100955.72
2023-05-09T21:59:22.039Z,100957.59
2023-05-09T22:01:49.718Z,100954.03
2023-05-09T22:04:16.438Z,100956.31
2023-05-09T22:06:43.218Z,100961.78
2023-05-09T22:09:11.208Z,100961.72
2023-05-09T22:11:37.873Z,100962.47
2023-05-09T22:14:04.748Z,100961.50
2023-05-09T22:16:34.450Z,100956.31
2023-05-09T22:19:01.215Z,100956.16
2023-05-09T22:21:28.228Z,100954.84
2023-05-09T22:23:54.915Z,100954.22
2023-05-09T22:26:25.648Z,100954.25
2023-05-09T22:28:52.468Z,100961.44
2023-05-09T22:31:19.248Z,100954.53
2023-05-09T22:33:46.224Z,100957.03
2023-05-09T22:36:13.033Z,100953.81
2023-05-09T22:38:39.960Z,100949.91
2023-05-09T22:41:06.638Z,100947.72
2023-05-09T22:43:38.800Z,100951.31
2023-05-09T22:46:06.653Z,100940.09
2023-05-09T22:48:33.559Z,100948.13
2023-05-09T22:51:00.280Z,100943.16
2023-05-09T22:53:26.887Z,100939.25
2023-05-09T22:55:56.525Z,100939.94
2023-05-09T22:58:23.210Z,100932.69
2023-05-09T23:00:52.376Z,100941.84
2023-05-09T23:03:19.257Z,100938.06
2023-05-09T23:05:45.958Z,100935.59
2023-05-09T23:08:12.700Z,100930.06
2023-05-09T23:10:39.400Z,100930.44
2023-05-09T23:13:06.128Z,100927.97
2023-05-09T23:15:33.020Z,100933.22
2023-05-09T23:17:59.745Z,100924.97
2023-05-09T23:20:26.648Z,100919.16
2023-05-09T23:22:56.255Z,100927.06
2023-05-09T23:25:22.935Z,100920.09
2023-05-09T23:27:54.510Z,100928.16
2023-05-09T23:30:21.216Z,100922.91
2023-05-09T23:32:47.949Z,100928.16
2023-05-09T23:35:14.772Z,100927.38
2023-05-09T23:37:41.517Z,100924.28
2023-05-09T23:40:08.774Z,100923.75
2023-05-09T23:42:37.791Z,100930.66
2023-05-09T23:45:05.262Z,100920.50
2023-05-09T23:47:32.099Z,100927.16
2023-05-09T23:50:01.428Z,100925.16
2023-05-09T23:52:28.087Z,100922.69
2023-05-09T23:54:54.898Z,100919.69
2023-05-09T23:57:21.619Z,100915.78
2023-05-09T23:59:49.808Z,100929.88
